Time;durP1;ratioP1;P1;durP2;ratioP2;P2;SDS_P1;SDS_P2;PMS_P1;PMS_P2;Temp;Humidity;BMP_temperature;BMP_pressure;BME280_temperature;BME280_humidity;BME280_pressure;Samples;Min_cycle;Max_cycle;Signal;HPM_P1;HPM_P2
2022/05/23 00:01:39;;;;;;;2.00;1.90;;;;;;;17.37;91.72;99389.72;5020247;28;20705;-77
2022/05/23 00:04:04;;;;;;;2.10;1.90;;;;;;;17.29;92.60;99386.66;5025329;28;20179;-76
2022/05/23 00:06:29;;;;;;;1.93;1.73;;;;;;;17.19;92.72;99380.19;5027258;28;20202;-76
2022/05/23 00:08:54;;;;;;;2.03;1.60;;;;;;;17.12;93.11;99378.84;5021151;28;20182;-75
2022/05/23 00:11:20;;;;;;;2.53;1.90;;;;;;;17.07;93.74;99363.38;5025787;28;20197;-77
2022/05/23 00:13:47;;;;;;;3.53;2.10;;;;;;;16.96;93.80;99361.31;5028572;28;20631;-75
2022/05/23 00:16:23;;;;;;;1.90;1.80;;;;;;;16.88;94.39;99353.81;5025966;28;20202;-76
2022/05/23 00:18:49;;;;;;;2.10;1.90;;;;;;;16.84;94.69;99348.84;5023276;28;20233;-76
2022/05/23 00:21:15;;;;;;;2.43;1.90;;;;;;;16.77;94.88;99343.91;5020593;28;20752;-77
2022/05/23 00:23:41;;;;;;;2.90;1.83;;;;;;;16.70;94.69;99331.22;5021914;28;20192;-78
2022/05/23 00:26:07;;;;;;;1.70;1.60;;;;;;;16.64;95.20;99339.38;5020385;28;20546;-76
2022/05/23 00:28:33;;;;;;;2.00;1.80;;;;;;;16.58;95.17;99336.13;5023328;28;20218;-77
2022/05/23 00:30:58;;;;;;;1.70;1.60;;;;;;;16.56;95.23;99330.16;5023272;28;20197;-77
2022/05/23 00:36:07;;;;;;;1.40;1.30;;;;;;;16.54;96.14;99326.75;5025354;28;20201;-77
2022/05/23 00:38:33;;;;;;;1.97;1.77;;;;;;;16.54;96.47;99331.97;5030686;28;20226;-75
2022/05/23 00:43:42;;;;;;;2.33;1.77;;;;;;;16.52;97.82;99319.94;5026226;28;20666;-77
2022/05/23 00:46:10;;;;;;;2.13;1.77;;;;;;;16.49;98.23;99320.06;5029459;28;20211;-79
2022/05/23 00:48:35;;;;;;;2.37;1.77;;;;;;;16.45;98.62;99314.16;5027339;28;20208;-76
2022/05/23 00:51:07;;;;;;;2.90;1.73;;;;;;;16.41;99.01;99310.00;5029474;28;20659;-76
2022/05/23 00:53:42;;;;;;;3.10;1.90;;;;;;;16.37;99.50;99304.09;5025039;28;20182;-77
2022/05/23 00:56:10;;;;;;;2.93;1.97;;;;;;;16.30;99.84;99287.88;5021015;28;20650;-76
2022/05/23 00:58:40;;;;;;;2.70;1.90;;;;;;;16.24;99.54;99282.94;5021912;28;20200;-78
2022/05/23 01:01:08;;;;;;;1.90;1.80;;;;;;;16.14;99.63;99276.50;5026452;28;20257;-77
2022/05/23 01:03:35;;;;;;;2.10;1.90;;;;;;;16.05;99.49;99269.94;5028332;28;20193;-76
2022/05/23 01:06:01;;;;;;;2.33;2.13;;;;;;;16.00;99.57;99266.69;5028560;28;20190;-75
2022/05/23 01:08:26;;;;;;;1.70;1.60;;;;;;;15.94;100.00;99260.03;5024889;28;20717;-76
2022/05/23 01:10:53;;;;;;;2.20;1.80;;;;;;;15.92;100.00;99261.03;5028197;28;20715;-77
2022/05/23 01:13:18;;;;;;;1.87;1.77;;;;;;;15.87;100.00;99263.00;5027954;28;20684;-76
2022/05/23 01:15:46;;;;;;;1.80;1.70;;;;;;;15.83;100.00;99273.53;5016037;28;20188;-75
2022/05/23 01:18:11;;;;;;;2.17;2.00;;;;;;;15.76;100.00;99274.75;5020578;28;20215;-77
2022/05/23 01:20:40;;;;;;;2.33;1.90;;;;;;;15.69;100.00;99270.72;5024335;28;20184;-76
2022/05/23 01:23:10;;;;;;;3.87;2.33;;;;;;;15.67;100.00;99278.63;5028686;28;20189;-77
2022/05/23 01:25:39;;;;;;;2.10;1.90;;;;;;;15.62;100.00;99279.78;5027539;28;20224;-78
2022/05/23 01:28:06;;;;;;;1.93;1.83;;;;;;;15.61;100.00;99272.84;5023036;28;20219;-77
2022/05/23 01:30:34;;;;;;;1.90;1.80;;;;;;;15.61;100.00;99273.69;5023292;28;20272;-77
2022/05/23 01:33:01;;;;;;;2.57;1.93;;;;;;;15.62;100.00;99275.38;5039062;28;20785;-77
2022/05/23 01:35:27;;;;;;;2.73;2.10;;;;;;;15.67;100.00;99260.38;5027585;28;20267;-76
2022/05/23 01:37:52;;;;;;;2.23;2.03;;;;;;;15.75;100.00;99260.03;5025807;28;20591;-77
2022/05/23 01:40:18;;;;;;;2.17;1.90;;;;;;;15.80;100.00;99257.19;5026812;28;20187;-76
2022/05/23 01:42:44;;;;;;;1.73;1.63;;;;;;;15.82;100.00;99265.78;5026036;28;20190;-77
2022/05/23 01:45:12;;;;;;;2.20;2.00;;;;;;;15.84;100.00;99261.34;5025756;28;20196;-76
2022/05/23 01:47:38;;;;;;;2.03;1.90;;;;;;;15.82;100.00;99264.00;5024833;28;20201;-76
2022/05/23 01:50:04;;;;;;;2.00;1.90;;;;;;;15.82;100.00;99253.56;5026131;28;20626;-78
2022/05/23 01:52:29;;;;;;;1.93;1.83;;;;;;;15.78;100.00;99244.22;5023794;28;20194;-77
2022/05/23 01:54:55;;;;;;;2.63;1.90;;;;;;;15.71;100.00;99245.41;5027183;28;20194;-76
2022/05/23 01:57:20;;;;;;;2.20;2.03;;;;;;;15.66;100.00;99247.38;5025483;28;20278;-78
2022/05/23 02:02:47;;;;;;;2.83;1.90;;;;;;;15.55;100.00;99229.66;5028518;28;20200;-76
2022/05/23 02:05:13;;;;;;;2.07;1.90;;;;;;;15.53;100.00;99221.88;5022151;28;20280;-77
2022/05/23 02:07:39;;;;;;;1.73;1.63;;;;;;;15.53;100.00;99215.84;5029007;28;20233;-78
2022/05/23 02:10:05;;;;;;;2.27;1.80;;;;;;;15.53;100.00;99218.44;5025941;28;20267;-76
2022/05/23 02:12:30;;;;;;;1.93;1.80;;;;;;;15.55;100.00;99209.63;5030150;28;20420;-75
2022/05/23 02:14:55;;;;;;;2.17;1.90;;;;;;;15.60;100.00;99216.41;5028755;28;20191;-76
2022/05/23 02:17:21;;;;;;;2.30;2.10;;;;;;;15.61;100.00;99213.72;5022864;28;20218;-76
2022/05/23 02:19:46;;;;;;;1.97;1.87;;;;;;;15.65;100.00;99211.81;5027642;28;20187;-77
2022/05/23 02:22:12;;;;;;;2.83;2.17;;;;;;;15.66;100.00;99205.66;5026153;28;20670;-77
2022/05/23 02:24:37;;;;;;;2.20;1.90;;;;;;;15.67;100.00;99200.38;5031217;28;20955;-77
2022/05/23 02:27:03;;;;;;;2.30;2.00;;;;;;;15.72;100.00;99189.72;5024365;28;20215;-76
2022/05/23 02:29:28;;;;;;;1.90;1.80;;;;;;;15.78;100.00;99180.75;5018990;28;20194;-78
2022/05/23 02:31:54;;;;;;;2.17;1.97;;;;;;;15.82;100.00;99177.09;5027781;28;20188;-76
2022/05/23 02:34:19;;;;;;;1.87;1.77;;;;;;;15.77;100.00;99166.03;5027924;28;20195;-77
2022/05/23 02:36:46;;;;;;;2.53;2.27;;;;;;;15.67;100.00;99161.28;5025687;28;20180;-77
2022/05/23 02:39:13;;;;;;;2.10;1.83;;;;;;;15.61;100.00;99155.50;5023902;28;20194;-77
2022/05/23 02:41:38;;;;;;;2.20;2.10;;;;;;;15.55;100.00;99154.88;5029964;28;20687;-77
2022/05/23 02:44:04;;;;;;;2.73;1.83;;;;;;;15.58;100.00;99156.47;5027345;28;20179;-76
2022/05/23 02:46:30;;;;;;;2.63;2.30;;;;;;;15.61;100.00;99161.56;5028201;28;20188;-76
2022/05/23 02:48:56;;;;;;;3.03;2.10;;;;;;;15.63;100.00;99167.53;5024086;28;20190;-77
2022/05/23 02:51:22;;;;;;;2.10;1.93;;;;;;;15.67;100.00;99169.09;5029874;28;20655;-76
2022/05/23 02:53:47;;;;;;;3.10;2.27;;;;;;;15.65;100.00;99167.50;5028626;28;20190;-76
2022/05/23 02:56:12;;;;;;;2.23;2.03;;;;;;;15.63;100.00;99162.31;5022661;28;20193;-77
2022/05/23 02:58:38;;;;;;;1.90;1.80;;;;;;;15.65;100.00;99159.66;5024526;28;22335;-78
2022/05/23 03:01:03;;;;;;;2.30;1.83;;;;;;;15.67;100.00;99150.84;5026357;28;20620;-77
2022/05/23 03:03:29;;;;;;;3.17;2.50;;;;;;;15.71;100.00;99154.13;5023906;28;20187;-77
2022/05/23 03:05:55;;;;;;;2.30;2.10;;;;;;;15.73;100.00;99159.28;5022039;28;20227;-77
2022/05/23 03:08:23;;;;;;;1.90;1.80;;;;;;;15.76;100.00;99170.41;5019076;28;20216;-76
2022/05/23 03:10:50;;;;;;;1.90;1.80;;;;;;;15.80;100.00;99215.44;5020272;28;20192;-77
2022/05/23 03:13:16;;;;;;;1.93;1.80;;;;;;;15.85;100.00;99281.34;5022257;28;20746;-76
2022/05/23 03:15:42;;;;;;;2.17;1.97;;;;;;;15.90;100.00;99377.66;5020737;28;20282;-76
2022/05/23 03:18:07;;;;;;;2.37;1.53;;;;;;;15.94;100.00;99419.19;5021189;28;20218;-76
2022/05/23 03:20:33;;;;;;;2.37;2.17;;;;;;;15.99;100.00;99392.88;5024949;28;20190;-77
2022/05/23 03:28:40;;;;;;;5.80;2.70;;;;;;;16.19;100.00;99417.22;5032242;28;20226;-76
2022/05/23 03:31:06;;;;;;;3.07;2.50;;;;;;;16.20;100.00;99398.03;5019182;28;20567;-76
2022/05/23 03:33:32;;;;;;;4.60;2.80;;;;;;;16.22;100.00;99396.19;5028378;28;20192;-76
2022/05/23 03:35:58;;;;;;;3.57;3.00;;;;;;;16.22;100.00;99461.47;5025436;28;20177;-75
2022/05/23 03:38:23;;;;;;;4.37;2.90;;;;;;;16.21;100.00;99451.94;5024782;28;20219;-76
2022/05/23 03:40:49;;;;;;;4.67;3.33;;;;;;;16.19;100.00;99469.44;5026747;28;20265;-76
2022/05/23 03:43:15;;;;;;;3.30;3.00;;;;;;;16.18;100.00;99510.38;5026394;28;20183;-77
2022/05/23 03:45:42;;;;;;;3.30;2.90;;;;;;;16.18;100.00;99520.81;5024823;28;20197;-76
2022/05/23 03:48:08;;;;;;;2.77;2.57;;;;;;;16.18;100.00;99526.03;5026552;28;20209;-76
2022/05/23 03:50:35;;;;;;;3.83;3.43;;;;;;;16.20;100.00;99526.78;5027174;28;20254;-77
2022/05/23 03:53:01;;;;;;;5.00;3.60;;;;;;;16.19;100.00;99539.91;5022380;28;20191;-76
2022/05/23 03:55:27;;;;;;;6.37;4.00;;;;;;;16.15;100.00;99554.88;5023484;28;20203;-76
2022/05/23 03:57:53;;;;;;;4.07;3.60;;;;;;;16.09;100.00;99535.09;5025255;28;20211;-76
2022/05/23 04:00:19;;;;;;;4.63;3.87;;;;;;;16.04;100.00;99542.28;5025993;28;20282;-75
2022/05/23 04:02:45;;;;;;;4.13;3.73;;;;;;;16.00;100.00;99527.66;5026762;28;20211;-76
2022/05/23 04:05:12;;;;;;;4.67;3.80;;;;;;;15.92;100.00;99506.28;5023004;28;20265;-75
2022/05/23 04:07:39;;;;;;;3.87;3.43;;;;;;;15.84;100.00;99519.63;5023304;28;20258;-76
2022/05/23 04:10:07;;;;;;;5.20;4.00;;;;;;;15.85;100.00;99505.72;5025853;28;20185;-76
2022/05/23 04:12:33;;;;;;;4.70;4.17;;;;;;;15.83;100.00;99489.25;5026084;28;20205;-76
2022/05/23 04:14:58;;;;;;;5.03;4.00;;;;;;;15.82;100.00;99483.16;5029649;28;20187;-77
2022/05/23 04:17:23;;;;;;;4.83;4.07;;;;;;;15.82;100.00;99466.66;5025405;28;20589;-77
2022/05/23 04:19:49;;;;;;;4.37;3.77;;;;;;;15.78;100.00;99450.31;5035186;28;20352;-76
2022/05/23 04:22:14;;;;;;;4.30;4.00;;;;;;;15.75;100.00;99437.41;5030299;28;20198;-76
2022/05/23 04:24:40;;;;;;;4.07;3.77;;;;;;;15.74;100.00;99434.84;5029673;28;20793;-76
2022/05/23 04:27:05;;;;;;;5.20;3.40;;;;;;;15.75;100.00;99429.56;5028786;28;20221;-76
2022/05/23 04:29:30;;;;;;;4.10;3.70;;;;;;;15.78;100.00;99433.78;5027695;28;20221;-76
2022/05/23 04:31:56;;;;;;;5.80;3.47;;;;;;;15.79;100.00;99410.28;5024581;28;20203;-76
2022/05/23 04:37:05;;;;;;;3.90;3.53;;;;;;;15.74;100.00;99419.19;5030175;28;20582;-76
2022/05/23 04:39:31;;;;;;;4.53;3.47;;;;;;;15.72;100.00;99426.25;5027723;28;20181;-75
2022/05/23 04:41:56;;;;;;;4.10;3.70;;;;;;;15.70;100.00;99421.97;5030296;28;20188;-77
2022/05/23 04:44:21;;;;;;;4.13;3.73;;;;;;;15.73;100.00;99365.34;5029225;28;20183;-77
2022/05/23 04:49:49;;;;;;;6.23;4.53;;;;;;;15.70;100.00;99280.25;5026730;28;20265;-75
2022/05/23 04:52:19;;;;;;;7.93;5.00;;;;;;;15.58;100.00;99257.34;5025073;28;20274;-76
2022/05/23 04:54:46;;;;;;;7.00;5.20;;;;;;;15.37;100.00;99224.38;5024960;28;20191;-76
2022/05/23 04:57:11;;;;;;;7.60;5.10;;;;;;;15.16;100.00;99192.31;5029592;28;20221;-77
2022/05/23 04:59:37;;;;;;;7.37;4.63;;;;;;;15.03;100.00;99176.38;5032635;28;20192;-76
2022/05/23 05:02:04;;;;;;;5.43;4.77;;;;;;;14.93;100.00;99169.91;5029403;28;20212;-76
2022/05/23 05:04:30;;;;;;;5.57;4.90;;;;;;;14.89;100.00;99157.94;5030634;28;20184;-76
2022/05/23 05:06:56;;;;;;;6.13;5.13;;;;;;;14.87;100.00;99154.53;5028754;28;20670;-76
2022/05/23 05:09:22;;;;;;;5.00;4.60;;;;;;;14.91;100.00;99180.38;5028162;28;20327;-75
2022/05/23 05:11:48;;;;;;;5.70;4.47;;;;;;;14.95;100.00;99209.78;5021877;28;20629;-76
2022/05/23 05:14:13;;;;;;;5.03;4.67;;;;;;;15.04;100.00;99165.06;5028791;28;20186;-77
2022/05/23 05:16:39;;;;;;;4.90;4.50;;;;;;;15.15;100.00;99158.50;5026999;28;20260;-76
2022/05/23 05:19:04;;;;;;;5.87;4.40;;;;;;;15.21;100.00;99143.41;5029067;28;20296;-77
2022/05/23 05:21:30;;;;;;;4.27;3.87;;;;;;;15.30;100.00;99090.00;5028807;28;20248;-76
2022/05/23 05:23:55;;;;;;;4.90;4.40;;;;;;;15.39;100.00;99066.13;5027511;28;20626;-77
2022/05/23 05:26:21;;;;;;;5.00;4.60;;;;;;;15.52;100.00;99062.91;5027892;28;20202;-76
2022/05/23 05:28:46;;;;;;;4.87;4.17;;;;;;;15.68;100.00;99070.81;5024298;28;20212;-77
2022/05/23 05:31:17;;;;;;;4.00;3.70;;;;;;;15.79;100.00;99068.53;5023403;28;20187;-77
2022/05/23 05:33:52;;;;;;;3.60;3.30;;;;;;;15.92;100.00;99047.91;5024032;28;20639;-77
2022/05/23 05:36:21;;;;;;;3.90;3.50;;;;;;;16.06;100.00;99046.34;5029398;28;20282;-77
2022/05/23 05:39:06;;;;;;;4.57;3.33;;;;;;;16.17;100.00;99049.28;5027192;28;20204;-76
2022/05/23 05:41:40;;;;;;;3.70;3.30;;;;;;;16.28;100.00;99043.47;5016152;28;20182;-76
2022/05/23 05:44:09;;;;;;;4.07;3.70;;;;;;;16.36;100.00;99049.13;5027352;28;20183;-76
2022/05/23 05:46:39;;;;;;;3.43;3.13;;;;;;;16.54;100.00;99067.38;5022581;28;20184;-76
2022/05/23 05:49:09;;;;;;;3.80;3.27;;;;;;;16.70;100.00;99059.53;5027000;28;20180;-75
2022/05/23 05:51:37;;;;;;;3.33;3.00;;;;;;;16.82;100.00;99077.16;5026146;28;20531;-76
2022/05/23 05:54:09;;;;;;;3.97;3.50;;;;;;;16.89;100.00;99091.59;5025626;28;20207;-75
2022/05/23 05:56:35;;;;;;;4.00;3.60;;;;;;;16.90;100.00;99095.91;5024940;28;20191;-75
2022/05/23 05:59:01;;;;;;;5.17;3.73;;;;;;;16.90;100.00;99101.13;5023324;28;20215;-76
2022/05/23 06:01:26;;;;;;;3.77;3.40;;;;;;;16.90;100.00;99097.66;5024418;28;20183;-76
2022/05/23 06:03:51;;;;;;;3.50;3.20;;;;;;;16.94;100.00;99107.00;5030448;28;20190;-76
2022/05/23 06:11:45;;;;;;;3.20;3.00;;;;;;;17.29;100.00;99100.78;5028501;28;20198;-75
2022/05/23 06:14:10;;;;;;;3.33;3.00;;;;;;;17.40;100.00;99111.50;5022570;28;20176;-75
2022/05/23 06:16:37;;;;;;;3.30;3.00;;;;;;;17.52;100.00;99113.44;5028391;28;20180;-75
2022/05/23 06:19:03;;;;;;;3.57;2.83;;;;;;;17.65;100.00;99117.97;5022909;28;20203;-75
2022/05/23 06:21:29;;;;;;;4.07;3.23;;;;;;;17.83;100.00;99113.44;5029804;28;20188;-76
2022/05/23 06:23:55;;;;;;;3.27;2.97;;;;;;;18.06;100.00;99124.38;5027237;28;20568;-75
2022/05/23 06:26:23;;;;;;;2.90;2.67;;;;;;;18.34;100.00;99127.97;5027130;28;20237;-75
2022/05/23 06:28:50;;;;;;;3.83;2.80;;;;;;;18.64;100.00;99114.78;5024958;28;20208;-76
2022/05/23 06:31:16;;;;;;;2.93;2.73;;;;;;;18.95;100.00;99115.53;5025519;28;20258;-76
2022/05/23 06:33:42;;;;;;;2.77;2.50;;;;;;;19.18;100.00;99114.09;5006639;28;20306;-76
2022/05/23 06:36:09;;;;;;;2.87;2.60;;;;;;;19.31;100.00;99124.66;5022415;28;20212;-76
2022/05/23 06:38:37;;;;;;;3.07;2.77;;;;;;;19.44;100.00;99126.47;5023220;28;20297;-75
2022/05/23 06:41:06;;;;;;;2.80;2.60;;;;;;;19.54;100.00;99131.97;5016337;28;20195;-76
2022/05/23 06:43:32;;;;;;;2.70;2.50;;;;;;;19.69;100.00;99151.97;5020184;28;20610;-76
2022/05/23 06:45:59;;;;;;;3.10;2.37;;;;;;;19.90;100.00;99168.13;5027345;28;20237;-75
2022/05/23 06:48:25;;;;;;;2.40;2.30;;;;;;;20.15;100.00;99160.41;5020062;28;20246;-76
2022/05/23 06:50:51;;;;;;;2.30;2.10;;;;;;;20.32;100.00;99160.13;5023449;28;20200;-76
2022/05/23 06:53:19;;;;;;;2.57;2.20;;;;;;;20.46;100.00;99150.47;5027457;28;20191;-76
2022/05/23 06:55:45;;;;;;;4.03;2.33;;;;;;;20.68;100.00;99150.66;5023699;28;20295;-76
2022/05/23 06:58:11;;;;;;;2.60;2.33;;;;;;;20.97;100.00;99160.13;5026544;28;20337;-76
2022/05/23 07:00:37;;;;;;;2.83;2.60;;;;;;;21.38;100.00;99158.94;5026392;28;20269;-76
2022/05/23 07:03:03;;;;;;;3.03;2.40;;;;;;;21.72;100.00;99166.19;5021660;28;20187;-76
2022/05/23 07:13:40;;;;;;;3.00;2.80;;;;;;;23.22;100.00;99127.59;5028515;28;20225;-75
2022/05/23 07:16:07;;;;;;;3.13;2.93;;;;;;;24.00;98.49;99130.13;5022910;28;20208;-75
2022/05/23 07:18:32;;;;;;;2.87;2.57;;;;;;;24.67;96.29;99141.19;5023881;28;20208;-75
2022/05/23 07:20:58;;;;;;;5.87;3.03;;;;;;;25.66;92.71;99126.41;5029274;28;20396;-76
2022/05/23 07:23:23;;;;;;;3.53;2.40;;;;;;;26.29;90.44;99114.47;5023981;28;20218;-75
2022/05/23 07:25:49;;;;;;;2.90;2.70;;;;;;;26.35;89.77;99105.97;5027994;28;20199;-74
2022/05/23 07:28:14;;;;;;;2.83;2.57;;;;;;;26.85;88.57;99103.97;5028202;28;20210;-75
2022/05/23 07:30:42;;;;;;;3.17;2.27;;;;;;;27.07;87.61;99118.66;5027530;28;20187;-74
2022/05/23 07:33:08;;;;;;;2.80;2.60;;;;;;;26.83;87.31;99114.72;5027523;28;20691;-77
2022/05/23 07:35:33;;;;;;;2.10;2.00;;;;;;;26.33;88.82;99105.25;5028652;28;20195;-77
2022/05/23 07:37:58;;;;;;;2.50;2.30;;;;;;;25.84;89.63;99100.88;5028471;28;20664;-75
2022/05/23 07:40:24;;;;;;;2.93;2.70;;;;;;;25.40;90.91;99109.25;5027484;28;20179;-75
2022/05/23 07:42:49;;;;;;;5.80;2.70;;;;;;;25.30;91.08;99096.97;5029244;28;20202;-76
2022/05/23 07:45:15;;;;;;;3.47;2.83;;;;;;;25.40;90.63;99087.19;5027814;28;20274;-75
2022/05/23 07:47:41;;;;;;;3.50;3.17;;;;;;;25.22;89.57;99079.13;5026414;28;20208;-75
2022/05/23 07:50:09;;;;;;;4.57;3.07;;;;;;;25.09;90.50;99082.88;5028818;28;20541;-76
2022/05/23 07:52:34;;;;;;;3.00;2.80;;;;;;;25.11;90.57;99075.59;5032643;28;20241;-77
2022/05/23 08:00:34;;;;;;;3.10;2.90;;;;;;;25.23;90.99;99059.59;5032749;28;20189;-74
2022/05/23 08:03:10;;;;;;;2.53;2.30;;;;;;;25.23;90.86;99047.19;5024178;28;20560;-75
2022/05/23 08:05:37;;;;;;;3.80;2.70;;;;;;;25.18;90.87;99040.66;5027714;28;20554;-75
2022/05/23 08:08:02;;;;;;;3.97;2.57;;;;;;;25.09;89.95;99039.66;5026198;28;20662;-75
2022/05/23 08:10:27;;;;;;;3.53;2.90;;;;;;;24.95;89.97;99039.09;5032306;28;20184;-77
2022/05/23 08:12:58;;;;;;;3.00;2.80;;;;;;;24.97;89.99;99041.59;5031844;28;20626;-75
2022/05/23 08:15:25;;;;;;;3.60;3.00;;;;;;;24.89;90.44;99041.44;5035364;28;20241;-77
2022/05/23 08:17:51;;;;;;;3.00;2.73;;;;;;;24.87;90.45;99046.88;5031139;28;20261;-76
2022/05/23 08:20:17;;;;;;;4.20;3.80;;;;;;;24.99;89.59;99041.47;5030897;28;20536;-76
2022/05/23 08:22:44;;;;;;;3.03;2.73;;;;;;;25.15;88.79;99041.75;5021368;28;20230;-76
2022/05/23 08:25:10;;;;;;;4.63;3.97;;;;;;;25.12;87.39;99044.69;5029412;28;20187;-76
2022/05/23 08:27:36;;;;;;;4.67;4.27;;;;;;;24.89;88.22;99044.91;5021551;28;20203;-76
2022/05/23 08:30:04;;;;;;;4.03;3.53;;;;;;;24.71;89.31;99046.56;5029901;28;20194;-76
2022/05/23 08:32:29;;;;;;;4.10;3.70;;;;;;;24.70;89.25;99053.66;5026945;28;20585;-76
2022/05/23 08:34:55;;;;;;;5.23;3.87;;;;;;;24.70;89.45;99058.94;5030066;28;20190;-76
2022/05/23 08:37:20;;;;;;;4.90;3.53;;;;;;;24.65;89.41;99054.03;5032491;28;20207;-76
2022/05/23 08:39:47;;;;;;;3.50;3.10;;;;;;;24.63;90.23;99063.91;5028365;28;20184;-76
2022/05/23 08:42:29;;;;;;;4.27;3.53;;;;;;;24.86;90.07;99073.47;5031815;28;20186;-76
2022/05/23 08:45:15;;;;;;;4.10;3.60;;;;;;;25.23;89.24;99071.00;5026166;28;20183;-76
2022/05/23 08:48:19;;;;;;;2.90;2.70;;;;;;;25.45;88.61;99073.56;5031060;28;20203;-76
2022/05/23 08:51:07;;;;;;;4.27;3.37;;;;;;;25.48;87.63;99084.75;4997047;28;20203;-76
2022/05/23 08:53:38;;;;;;;3.53;3.20;;;;;;;25.56;87.90;99084.88;5030744;28;20176;-76
2022/05/23 08:56:28;;;;;;;3.70;3.20;;;;;;;25.75;87.58;99095.56;5023519;28;20183;-75
2022/05/23 08:58:58;;;;;;;3.23;2.90;;;;;;;25.99;87.46;99106.59;5031128;28;20210;-76
2022/05/23 09:02:08;;;;;;;2.97;2.77;;;;;;;26.03;86.21;99105.28;5030222;28;20560;-76
2022/05/23 09:04:36;;;;;;;4.57;3.70;;;;;;;25.94;85.36;99108.81;4979925;28;20220;-76
2022/05/23 09:07:04;;;;;;;3.63;3.33;;;;;;;25.91;86.30;99106.44;4992617;28;20552;-76
2022/05/23 09:09:32;;;;;;;3.80;3.47;;;;;;;25.97;85.85;99105.88;5015635;28;20195;-76
2022/05/23 09:12:14;;;;;;;3.23;2.87;;;;;;;26.01;86.27;99095.81;5029911;28;20183;-76
2022/05/23 09:14:39;;;;;;;3.27;3.00;;;;;;;26.06;86.73;99087.44;5030533;28;20191;-75
2022/05/23 09:17:23;;;;;;;3.57;3.03;;;;;;;26.05;86.76;99094.56;5031171;28;20306;-76
2022/05/23 09:20:03;;;;;;;3.50;2.93;;;;;;;25.81;86.66;99095.03;5029904;28;20187;-76
2022/05/23 09:22:51;;;;;;;3.00;2.70;;;;;;;25.56;87.97;99084.03;5027459;28;20191;-76
2022/05/23 09:25:24;;;;;;;3.63;3.33;;;;;;;25.50;87.96;99080.13;5030264;28;20271;-76
2022/05/23 09:28:14;;;;;;;3.60;3.30;;;;;;;25.59;87.62;99077.63;5023703;28;20211;-77
2022/05/23 09:30:42;;;;;;;4.57;3.57;;;;;;;25.70;87.11;99088.91;5022902;28;20192;-75
2022/05/23 09:33:12;;;;;;;3.60;3.30;;;;;;;25.91;87.18;99087.06;5016822;28;20648;-76
2022/05/23 09:35:46;;;;;;;3.60;3.30;;;;;;;26.03;87.38;99093.88;5027229;28;20604;-76
2022/05/23 09:38:25;;;;;;;3.83;3.27;;;;;;;25.92;87.71;99094.88;5039373;28;20262;-75
2022/05/23 09:40:52;;;;;;;3.17;2.97;;;;;;;25.75;88.03;99090.28;5030282;28;20237;-76
2022/05/23 09:49:06;;;;;;;3.90;3.20;;;;;;;26.01;87.37;99082.56;5024111;28;20184;-76
2022/05/23 09:51:46;;;;;;;3.73;3.20;;;;;;;26.29;87.05;99093.28;5026062;28;20202;-76
2022/05/23 09:54:18;;;;;;;4.13;3.77;;;;;;;26.61;85.52;99086.72;5015778;28;20191;-76
2022/05/23 09:56:44;;;;;;;3.70;3.40;;;;;;;26.74;84.56;99103.13;5025464;28;20180;-76
2022/05/23 09:59:32;;;;;;;3.30;3.10;;;;;;;26.79;84.61;99118.66;5029824;28;20323;-75
2022/05/23 10:02:04;;;;;;;3.87;3.57;;;;;;;26.86;84.73;99130.34;5030954;28;20643;-76
2022/05/23 10:04:32;;;;;;;3.60;3.30;;;;;;;26.87;84.63;99132.03;5030176;28;20263;-76
2022/05/23 10:06:57;;;;;;;4.13;3.00;;;;;;;26.75;85.00;99128.69;5031243;28;20231;-76
2022/05/23 10:09:33;;;;;;;3.50;2.77;;;;;;;26.52;85.21;99132.72;5023093;28;20234;-75
2022/05/23 10:12:06;;;;;;;3.20;3.00;;;;;;;26.13;85.97;99129.16;5028886;28;20262;-76
2022/05/23 10:14:51;;;;;;;3.70;3.40;;;;;;;25.68;86.66;99127.09;5055915;28;20190;-76
2022/05/23 10:17:34;;;;;;;3.10;2.90;;;;;;;25.24;87.85;99144.19;5023146;28;20587;-76
2022/05/23 10:20:25;;;;;;;3.67;3.37;;;;;;;24.88;89.04;99151.72;5023950;28;20223;-75
2022/05/23 10:23:07;;;;;;;4.00;3.70;;;;;;;24.61;91.04;99163.72;5024939;28;20176;-75
2022/05/23 10:25:43;;;;;;;5.33;4.43;;;;;;;24.37;92.82;99147.31;5030010;28;20190;-76
2022/05/23 10:28:14;;;;;;;5.57;5.07;;;;;;;23.98;94.59;99161.94;5021876;28;20351;-76
2022/05/23 10:30:44;;;;;;;5.33;4.90;;;;;;;23.59;96.33;99173.00;5042011;28;20282;-76
2022/05/23 10:33:13;;;;;;;4.83;4.43;;;;;;;23.23;97.89;99204.03;5028162;28;20180;-78
2022/05/23 10:36:02;;;;;;;7.77;6.20;;;;;;;22.93;100.00;99210.72;5022767;28;20261;-75
2022/05/23 10:44:56;;;;;;;6.37;5.67;;;;;;;21.85;100.00;99137.19;5029098;28;20218;-75
2022/05/23 10:47:49;;;;;;;5.97;5.37;;;;;;;21.62;100.00;99134.47;5029135;28;20320;-76
2022/05/23 10:50:27;;;;;;;5.30;4.80;;;;;;;21.44;100.00;99139.22;5028564;28;20257;-76
2022/05/23 10:52:57;;;;;;;5.43;4.80;;;;;;;21.29;100.00;99093.84;5027788;28;20199;-75
2022/05/23 10:55:33;;;;;;;5.13;4.73;;;;;;;21.14;100.00;99066.84;5028834;28;20211;-74
2022/05/23 10:58:42;;;;;;;5.03;4.63;;;;;;;20.97;100.00;99047.84;5028656;28;20210;-76
2022/05/23 11:01:29;;;;;;;5.00;4.03;;;;;;;20.86;100.00;99011.84;4994676;28;21007;-76
2022/05/23 11:04:13;;;;;;;6.57;4.37;;;;;;;20.76;100.00;98967.91;5026298;28;20188;-75
2022/05/23 11:07:02;;;;;;;5.03;3.97;;;;;;;20.71;100.00;98989.25;5029616;28;20191;-75
2022/05/23 11:09:56;;;;;;;5.33;3.80;;;;;;;20.73;100.00;99005.72;5022107;28;20203;-75
2022/05/23 11:12:31;;;;;;;6.30;3.83;;;;;;;20.77;100.00;99023.00;5041312;28;20183;-75
2022/05/23 11:15:30;;;;;;;5.63;3.63;;;;;;;20.81;100.00;99023.63;5028069;28;20232;-75
2022/05/23 11:18:01;;;;;;;4.87;3.87;;;;;;;20.78;100.00;99027.31;5021607;28;20224;-76
2022/05/23 11:20:33;;;;;;;6.37;3.60;;;;;;;20.77;100.00;99011.66;5018955;28;20208;-74
2022/05/23 11:23:21;;;;;;;7.67;3.20;;;;;;;20.71;100.00;98997.13;5028071;28;20234;-76
2022/05/23 11:25:51;;;;;;;3.93;3.30;;;;;;;20.71;100.00;98981.38;5023968;28;20202;-76
2022/05/23 11:34:11;;;;;;;4.13;2.70;;;;;;;21.16;100.00;98957.09;5027557;28;20321;-76
2022/05/23 11:39:56;;;;;;;3.67;2.80;;;;;;;21.75;100.00;98939.53;5024966;28;20187;-76
2022/05/23 11:42:24;;;;;;;2.87;2.47;;;;;;;22.05;100.00;98938.09;5016506;28;20274;-76
2022/05/23 11:44:49;;;;;;;4.43;2.63;;;;;;;22.28;100.00;98938.91;5027748;28;20190;-75
2022/05/23 11:47:27;;;;;;;3.83;2.70;;;;;;;22.43;100.00;98925.50;5023793;28;20709;-75
2022/05/23 11:50:08;;;;;;;3.53;2.83;;;;;;;22.49;100.00;98922.38;5020180;28;20674;-75
2022/05/23 11:52:40;;;;;;;3.57;2.67;;;;;;;22.43;100.00;98913.19;5019878;28;20187;-76
2022/05/23 11:55:12;;;;;;;6.07;2.87;;;;;;;22.49;100.00;98922.38;5027863;28;20180;-76
2022/05/23 11:57:40;;;;;;;5.13;3.07;;;;;;;22.52;100.00;98919.50;5024228;28;20223;-75
2022/05/23 12:00:26;;;;;;;4.03;3.10;;;;;;;22.46;100.00;98925.25;5021782;28;20180;-76
2022/05/23 12:03:06;;;;;;;3.83;3.10;;;;;;;22.39;100.00;98923.06;5026378;28;20188;-76
2022/05/23 12:05:33;;;;;;;3.60;3.13;;;;;;;22.37;100.00;98911.84;5027303;28;20207;-75
2022/05/23 12:08:02;;;;;;;3.50;3.20;;;;;;;22.37;100.00;98922.38;5025035;28;20207;-76
2022/05/23 12:10:28;;;;;;;4.97;2.90;;;;;;;22.28;100.00;98923.09;5028726;28;20811;-75
2022/05/23 12:13:18;;;;;;;5.57;3.60;;;;;;;22.25;100.00;98927.78;5024957;28;20283;-74
2022/05/23 12:15:43;;;;;;;4.07;3.40;;;;;;;22.14;100.00;98941.81;5026659;28;20180;-75
2022/05/23 12:18:34;;;;;;;3.33;2.87;;;;;;;22.11;100.00;98931.50;5025991;28;20214;-78
2022/05/23 12:21:06;;;;;;;4.57;3.40;;;;;;;22.13;100.00;98946.25;5033536;28;20254;-76
2022/05/23 12:23:34;;;;;;;4.90;3.50;;;;;;;22.13;100.00;98942.75;5021572;28;20187;-76
2022/05/23 12:26:11;;;;;;;4.90;3.60;;;;;;;22.19;100.00;98945.75;5027411;28;20199;-76
2022/05/23 12:28:52;;;;;;;3.73;2.93;;;;;;;22.34;100.00;98950.75;5018792;28;20804;-75
2022/05/23 12:31:22;;;;;;;3.10;2.80;;;;;;;22.54;100.00;98941.28;5027441;28;20175;-76
2022/05/23 12:34:07;;;;;;;3.27;2.70;;;;;;;22.77;100.00;98935.97;5024533;28;20879;-76
2022/05/23 12:36:36;;;;;;;4.53;2.83;;;;;;;23.04;100.00;98929.38;5042543;28;20183;-76
2022/05/23 12:39:41;;;;;;;3.10;2.77;;;;;;;23.36;100.00;98932.00;5029907;28;20198;-77
2022/05/23 12:42:20;;;;;;;3.40;3.13;;;;;;;23.69;100.00;98932.72;5020787;28;20191;-76